Time;durP1;ratioP1;P1;durP2;ratioP2;P2;SDS_P1;SDS_P2;PMS_P1;PMS_P2;Temp;Humidity;BMP_temperature;BMP_pressure;BME280_temperature;BME280_humidity;BME280_pressure;Samples;Min_cycle;Max_cycle;Signal;HPM_P1;HPM_P2
2022/02/03 00:00:24;;;;;;;0.30;0.30;;;5.90;99.90;;;;;;4997076;28;20475;-79
2022/02/03 00:03:02;;;;;;;0.80;0.80;;;5.90;99.90;;;;;;4996747;28;20551;-79
2022/02/03 00:05:40;;;;;;;0.30;0.30;;;6.00;99.90;;;;;;4995885;28;20538;-79
2022/02/03 00:08:13;;;;;;;0.50;0.30;;;6.00;99.90;;;;;;4996940;28;20536;-79
2022/02/03 00:11:00;;;;;;;0.30;0.20;;;6.00;99.90;;;;;;4996793;28;20428;-79
2022/02/03 00:24:53;;;;;;;0.30;0.30;;;6.00;99.90;;;;;;4995861;28;20472;-79
2022/02/03 00:27:43;;;;;;;0.50;0.40;;;6.00;99.90;;;;;;4996031;28;20472;-79
2022/02/03 00:30:13;;;;;;;0.60;0.60;;;6.10;99.90;;;;;;4996136;28;20432;-79
2022/02/03 00:35:35;;;;;;;0.30;0.20;;;6.10;99.90;;;;;;4987075;28;20429;-81
2022/02/03 00:38:19;;;;;;;0.30;0.20;;;6.10;99.90;;;;;;4996524;28;20872;-81
2022/02/03 00:49:15;;;;;;;0.37;0.30;;;6.10;99.90;;;;;;4996005;28;20891;-80
2022/02/03 00:51:46;;;;;;;0.40;0.40;;;6.10;99.90;;;;;;4995774;28;20473;-80
2022/02/03 00:54:15;;;;;;;0.30;0.20;;;6.10;99.90;;;;;;4995558;28;20433;-80
2022/02/03 00:56:45;;;;;;;0.40;0.37;;;6.10;99.90;;;;;;4995717;28;20583;-80
2022/02/03 00:59:20;;;;;;;0.40;0.40;;;6.10;99.90;;;;;;4995780;28;20468;-80
2022/02/03 01:01:50;;;;;;;0.30;0.20;;;6.10;99.90;;;;;;4995671;28;20433;-82
2022/02/03 01:04:17;;;;;;;0.30;0.20;;;6.10;99.90;;;;;;4995315;28;20936;-80
2022/02/03 01:06:49;;;;;;;0.50;0.50;;;6.00;99.90;;;;;;4995420;28;20818;-80
2022/02/03 01:09:19;;;;;;;0.40;0.40;;;6.00;99.90;;;;;;4995531;28;20444;-80
2022/02/03 01:11:49;;;;;;;0.30;0.30;;;6.10;99.90;;;;;;4995036;28;20488;-80
2022/02/03 01:14:23;;;;;;;0.80;0.30;;;6.10;99.90;;;;;;4995139;28;20916;-80
2022/02/03 01:17:07;;;;;;;0.30;0.30;;;6.00;99.90;;;;;;4994334;28;20504;-80
2022/02/03 01:44:54;;;;;;;0.30;0.20;;;6.00;99.90;;;;;;4994697;28;20962;-80
2022/02/03 01:47:31;;;;;;;0.33;0.27;;;6.00;99.90;;;;;;4994498;28;20483;-80
2022/02/03 01:52:50;;;;;;;0.33;0.30;;;6.00;99.90;;;;;;4994464;28;20568;-80
2022/02/03 01:55:18;;;;;;;0.30;0.30;;;5.90;99.90;;;;;;4994603;28;20828;-80
2022/02/03 01:57:56;;;;;;;0.33;0.33;;;5.90;99.90;;;;;;4994555;28;20465;-80
2022/02/03 02:00:23;;;;;;;0.30;0.30;;;5.90;99.90;;;;;;4994628;28;20433;-80
2022/02/03 02:03:13;;;;;;;0.30;0.30;;;5.90;99.90;;;;;;4994222;28;20962;-81
2022/02/03 02:05:52;;;;;;;0.30;0.20;;;5.80;99.90;;;;;;4994263;28;21026;-81
2022/02/03 02:08:30;;;;;;;0.50;0.50;;;5.90;99.90;;;;;;4994967;28;20452;-80
2022/02/03 02:11:21;;;;;;;0.30;0.30;;;5.90;99.90;;;;;;4994346;28;20420;-81
2022/02/03 02:16:56;;;;;;;0.30;0.30;;;5.80;99.90;;;;;;4993137;28;21049;-81
2022/02/03 02:19:45;;;;;;;0.30;0.30;;;5.90;99.90;;;;;;4994297;28;20441;-81
2022/02/03 02:39:20;;;;;;;0.30;0.30;;;5.90;99.90;;;;;;4993380;28;20529;-79
2022/02/03 02:44:50;;;;;;;0.30;0.30;;;5.90;99.90;;;;;;4983412;28;20491;-79
2022/02/03 02:47:27;;;;;;;0.30;0.20;;;5.90;99.90;;;;;;4993694;28;20498;-79
2022/02/03 02:50:04;;;;;;;0.30;0.30;;;5.90;99.90;;;;;;4994456;28;20452;-79
2022/02/03 02:52:40;;;;;;;0.30;0.20;;;5.90;99.90;;;;;;4993651;28;20583;-79
2022/02/03 02:55:20;;;;;;;0.77;0.77;;;5.90;99.90;;;;;;4993677;28;20436;-79
2022/02/03 02:58:08;;;;;;;0.30;0.30;;;5.90;99.90;;;;;;4993769;28;20447;-79
2022/02/03 03:04:03;;;;;;;0.43;0.43;;;5.90;99.90;;;;;;4993671;28;20476;-79
2022/02/03 03:29:12;;;;;;;0.37;0.30;;;5.80;99.90;;;;;;4993273;28;20928;-79
2022/02/03 03:34:45;;;;;;;0.30;0.20;;;5.80;99.90;;;;;;4993584;28;20420;-79
2022/02/03 03:37:16;;;;;;;0.60;0.50;;;5.80;99.90;;;;;;4993275;28;20456;-79
2022/02/03 03:39:49;;;;;;;0.30;0.20;;;5.80;99.90;;;;;;4993610;28;20477;-79
2022/02/03 03:42:22;;;;;;;0.40;0.40;;;5.80;99.90;;;;;;4997666;28;20824;-79
2022/02/03 03:44:55;;;;;;;0.43;0.40;;;5.80;99.90;;;;;;4996895;28;20444;-79
2022/02/03 03:47:27;;;;;;;0.30;0.20;;;5.80;99.90;;;;;;4996839;28;20472;-79
2022/02/03 03:50:00;;;;;;;0.30;0.30;;;5.80;99.90;;;;;;4996648;28;20444;-79
2022/02/03 03:52:30;;;;;;;0.30;0.20;;;5.70;99.90;;;;;;4996613;28;20480;-79
2022/02/03 03:55:11;;;;;;;0.30;0.30;;;5.70;99.90;;;;;;4996864;28;20825;-79
2022/02/03 03:57:58;;;;;;;0.90;0.90;;;5.70;99.90;;;;;;4996740;28;20464;-79
2022/02/03 04:32:20;;;;;;;0.30;0.20;;;5.70;99.90;;;;;;4987337;28;20480;-81
2022/02/03 04:55:30;;;;;;;0.93;0.93;;;5.60;99.90;;;;;;4984939;28;20443;-81
2022/02/03 05:04:39;;;;;;;0.30;0.30;;;5.60;99.90;;;;;;4955122;29;20482;-79
2022/02/03 05:07:44;;;;;;;0.30;0.20;;;5.60;99.90;;;;;;4954550;28;20469;-79
2022/02/03 05:10:38;;;;;;;0.30;0.30;;;5.60;99.90;;;;;;4993801;28;20456;-79
2022/02/03 05:13:43;;;;;;;0.30;0.20;;;5.60;99.90;;;;;;4995111;28;20562;-79
2022/02/03 05:23:00;;;;;;;0.30;0.30;;;5.60;99.90;;;;;;4974893;28;20504;-79
2022/02/03 05:25:49;;;;;;;0.30;0.20;;;5.60;99.90;;;;;;4975271;28;20866;-81
2022/02/03 05:35:13;;;;;;;0.30;0.20;;;5.50;99.90;;;;;;4965010;28;20445;-81
2022/02/03 05:44:13;;;;;;;0.30;0.30;;;5.50;99.90;;;;;;4975444;28;20514;-81
2022/02/03 05:46:56;;;;;;;0.40;0.30;;;5.50;99.90;;;;;;4975356;28;20461;-81
2022/02/03 05:49:51;;;;;;;0.30;0.30;;;5.40;99.90;;;;;;4974888;28;20936;-81
2022/02/03 06:01:11;;;;;;;0.30;0.30;;;5.40;99.90;;;;;;4975408;28;20449;-79
2022/02/03 06:04:02;;;;;;;0.40;0.40;;;5.50;99.90;;;;;;4974540;28;20460;-79
2022/02/03 06:06:50;;;;;;;0.40;0.30;;;5.50;99.90;;;;;;4975022;28;20477;-79
2022/02/03 06:09:29;;;;;;;0.30;0.20;;;5.60;99.90;;;;;;4975266;28;20532;-79
2022/02/03 06:14:54;;;;;;;0.30;0.20;;;5.70;99.90;;;;;;4968649;28;20438;-79
2022/02/03 06:17:31;;;;;;;0.30;0.30;;;5.70;99.90;;;;;;4974757;28;20469;-79
2022/02/03 06:22:45;;;;;;;0.30;0.30;;;5.70;99.90;;;;;;4974519;28;20501;-81
2022/02/03 06:27:57;;;;;;;0.30;0.20;;;5.70;99.90;;;;;;4993765;28;20779;-80
2022/02/03 06:30:26;;;;;;;0.30;0.30;;;5.70;99.90;;;;;;4994198;28;20793;-81
2022/02/03 06:32:52;;;;;;;0.30;0.20;;;5.70;99.90;;;;;;4993764;28;20484;-82
2022/02/03 06:35:19;;;;;;;0.30;0.30;;;5.70;99.90;;;;;;4993783;28;20527;-82
2022/02/03 06:37:48;;;;;;;0.50;0.33;;;5.70;99.90;;;;;;4994247;28;20547;-82
2022/02/03 06:40:15;;;;;;;0.30;0.30;;;5.70;99.90;;;;;;4993979;28;20440;-79
2022/02/03 06:42:43;;;;;;;2.77;0.40;;;5.70;99.90;;;;;;4993803;28;20547;-79
2022/02/03 06:45:14;;;;;;;1.17;0.30;;;5.80;99.90;;;;;;4993779;28;20449;-79
2022/02/03 06:47:57;;;;;;;0.30;0.30;;;5.80;99.90;;;;;;4993819;28;20817;-79
2022/02/03 06:50:29;;;;;;;1.73;0.50;;;5.80;99.90;;;;;;4993941;28;20443;-79
2022/02/03 06:53:01;;;;;;;0.30;0.20;;;5.80;99.90;;;;;;4993862;28;20472;-79
2022/02/03 06:55:40;;;;;;;0.30;0.20;;;5.80;99.90;;;;;;4993343;28;20475;-80
2022/02/03 06:58:13;;;;;;;0.50;0.50;;;5.90;99.90;;;;;;4993829;28;20437;-79
2022/02/03 07:00:44;;;;;;;0.40;0.40;;;5.90;99.90;;;;;;4993410;28;21007;-79
2022/02/03 07:03:17;;;;;;;0.30;0.20;;;5.90;99.90;;;;;;4993807;28;20425;-79
2022/02/03 07:05:44;;;;;;;0.40;0.40;;;5.90;99.90;;;;;;4993764;28;20533;-79
2022/02/03 07:08:15;;;;;;;0.30;0.30;;;5.90;99.90;;;;;;4993346;28;20815;-79
2022/02/03 07:10:42;;;;;;;0.30;0.30;;;5.90;99.90;;;;;;4993714;28;20842;-79
2022/02/03 07:13:10;;;;;;;0.30;0.20;;;6.00;99.90;;;;;;4993315;28;20488;-81
2022/02/03 07:15:36;;;;;;;0.30;0.30;;;6.00;99.90;;;;;;4997885;28;20488;-80
2022/02/03 07:18:04;;;;;;;0.30;0.20;;;6.00;99.90;;;;;;4997934;28;20475;-81
2022/02/03 07:20:34;;;;;;;0.30;0.20;;;6.00;99.90;;;;;;4997593;28;20536;-82
2022/02/03 07:23:01;;;;;;;0.30;0.30;;;6.00;99.90;;;;;;4997229;28;20935;-81
2022/02/03 07:25:27;;;;;;;0.30;0.30;;;6.00;99.90;;;;;;4997325;28;20480;-81
2022/02/03 07:27:54;;;;;;;0.30;0.30;;;6.10;99.90;;;;;;4997044;28;20441;-81
2022/02/03 07:30:21;;;;;;;0.40;0.30;;;6.10;99.90;;;;;;4996906;28;20449;-82
2022/02/03 07:32:53;;;;;;;0.30;0.30;;;6.10;99.90;;;;;;4997243;28;20498;-81
2022/02/03 07:35:19;;;;;;;0.30;0.30;;;6.20;99.90;;;;;;4997282;28;20433;-81
2022/02/03 07:37:49;;;;;;;0.30;0.30;;;6.20;99.90;;;;;;4997309;28;20410;-81
2022/02/03 07:40:18;;;;;;;0.30;0.20;;;6.30;99.90;;;;;;4997289;28;20441;-81
2022/02/03 07:42:47;;;;;;;3.33;0.53;;;6.30;99.90;;;;;;4997272;28;20441;-81
2022/02/03 07:45:15;;;;;;;0.30;0.30;;;6.40;99.90;;;;;;4997098;28;20524;-81
2022/02/03 07:47:45;;;;;;;0.30;0.20;;;6.40;99.90;;;;;;4997144;28;20528;-81
2022/02/03 07:50:13;;;;;;;0.30;0.30;;;6.40;99.90;;;;;;4997519;28;20788;-80
2022/02/03 07:52:40;;;;;;;0.30;0.30;;;6.40;99.90;;;;;;4996618;28;20991;-80
2022/02/03 07:55:09;;;;;;;0.30;0.20;;;6.40;99.90;;;;;;4996982;28;20448;-80
2022/02/03 07:57:36;;;;;;;0.30;0.30;;;6.40;99.90;;;;;;4996919;28;20463;-81
2022/02/03 08:00:05;;;;;;;0.30;0.30;;;6.40;99.90;;;;;;4996468;28;20444;-80
2022/02/03 08:02:32;;;;;;;0.30;0.30;;;6.40;99.90;;;;;;4996413;28;20852;-80
2022/02/03 08:05:02;;;;;;;0.30;0.30;;;6.40;99.90;;;;;;4996321;28;20944;-80
2022/02/03 08:07:29;;;;;;;0.30;0.20;;;6.40;99.90;;;;;;4996710;28;20476;-80
2022/02/03 08:09:59;;;;;;;0.30;0.20;;;6.40;99.90;;;;;;4996696;28;20452;-80
2022/02/03 08:12:31;;;;;;;0.57;0.57;;;6.40;99.90;;;;;;4996449;28;21002;-81
2022/02/03 08:14:59;;;;;;;0.47;0.47;;;6.50;99.90;;;;;;4996309;28;20953;-81
2022/02/03 08:17:34;;;;;;;1.33;0.30;;;6.60;99.90;;;;;;4996490;28;20507;-81
2022/02/03 08:20:05;;;;;;;0.30;0.20;;;6.60;99.90;;;;;;4996570;28;20859;-81
2022/02/03 08:22:35;;;;;;;0.30;0.30;;;6.70;99.90;;;;;;4996496;28;20495;-81
2022/02/03 08:25:09;;;;;;;0.30;0.30;;;6.80;99.90;;;;;;4996060;28;20833;-81
2022/02/03 08:28:00;;;;;;;0.30;0.20;;;7.00;99.90;;;;;;4995862;28;20503;-81
2022/02/03 08:30:37;;;;;;;0.30;0.20;;;7.20;99.90;;;;;;4995905;28;20787;-81
2022/02/03 08:33:05;;;;;;;0.30;0.30;;;7.50;99.90;;;;;;4996422;28;20468;-81
2022/02/03 08:35:37;;;;;;;0.30;0.20;;;7.60;99.90;;;;;;4996142;28;20480;-80
2022/02/03 08:38:15;;;;;;;0.30;0.30;;;7.70;99.90;;;;;;4996208;28;20445;-80
2022/02/03 08:40:55;;;;;;;0.33;0.30;;;7.70;99.90;;;;;;4995822;28;20436;-81
2022/02/03 08:43:24;;;;;;;0.30;0.20;;;7.70;99.90;;;;;;4996042;28;20503;-81
2022/02/03 08:45:51;;;;;;;0.30;0.20;;;7.70;99.90;;;;;;4995702;28;20461;-83
2022/02/03 08:48:18;;;;;;;0.30;0.30;;;7.70;99.90;;;;;;4995981;28;20521;-82
2022/02/03 08:50:45;;;;;;;0.30;0.30;;;7.80;99.90;;;;;;4995685;28;20437;-82
2022/02/03 08:53:16;;;;;;;0.30;0.30;;;7.90;99.90;;;;;;4995527;28;21022;-82
2022/02/03 08:55:57;;;;;;;0.40;0.40;;;8.00;99.90;;;;;;4996642;28;20535;-82
2022/02/03 08:58:45;;;;;;;0.30;0.20;;;8.00;99.90;;;;;;4995835;28;20436;-82
2022/02/03 09:54:37;;;;;;;0.40;0.30;;;11.20;99.90;;;;;;4994672;28;20488;-78
2022/02/03 09:57:14;;;;;;;0.37;0.30;;;12.20;99.90;;;;;;4994862;28;20467;-77
2022/02/03 09:59:50;;;;;;;0.50;0.30;;;12.80;99.90;;;;;;4994710;28;20487;-78
2022/02/03 10:02:22;;;;;;;2.00;0.40;;;12.70;99.90;;;;;;4994321;28;20440;-78
2022/02/03 10:04:53;;;;;;;0.30;0.30;;;12.30;99.90;;;;;;4995302;28;20433;-78
2022/02/03 10:07:21;;;;;;;0.30;0.30;;;11.80;99.90;;;;;;4995321;28;20814;-78
2022/02/03 10:09:50;;;;;;;1.33;0.60;;;11.30;99.90;;;;;;4995292;28;20437;-78
2022/02/03 10:12:17;;;;;;;0.40;0.30;;;11.00;99.90;;;;;;4994207;28;20908;-78
2022/02/03 10:14:46;;;;;;;0.30;0.30;;;10.70;99.90;;;;;;4994360;28;20469;-78
2022/02/03 10:17:16;;;;;;;0.30;0.30;;;11.00;99.90;;;;;;4994375;28;20476;-78
2022/02/03 10:19:48;;;;;;;0.30;0.30;;;11.20;99.90;;;;;;4994381;28;20470;-78
2022/02/03 10:22:19;;;;;;;0.50;0.50;;;11.50;99.90;;;;;;4994282;28;20440;-78
2022/02/03 10:24:49;;;;;;;0.30;0.30;;;12.00;99.90;;;;;;4993928;28;20484;-78
2022/02/03 10:27:25;;;;;;;0.30;0.27;;;12.00;99.90;;;;;;4993904;28;20472;-78
2022/02/03 10:30:08;;;;;;;0.90;0.30;;;11.90;99.90;;;;;;4993859;28;20900;-78
2022/02/03 10:32:37;;;;;;;0.40;0.40;;;11.90;99.90;;;;;;4993928;28;20428;-78
2022/02/03 10:35:20;;;;;;;0.40;0.40;;;12.00;99.90;;;;;;4994136;28;20460;-78
2022/02/03 10:38:19;;;;;;;0.30;0.30;;;11.90;99.90;;;;;;4994177;28;20437;-78
2022/02/03 10:41:10;;;;;;;0.40;0.33;;;11.80;99.90;;;;;;4994360;28;20437;-78
2022/02/03 10:49:22;;;;;;;0.30;0.20;;;11.20;99.90;;;;;;4993733;28;20416;-79
2022/02/03 10:52:29;;;;;;;0.60;0.60;;;10.70;99.90;;;;;;4993881;28;20452;-78
2022/02/03 11:00:50;;;;;;;0.40;0.30;;;10.60;99.90;;;;;;4989995;28;20436;-78
2022/02/03 11:03:24;;;;;;;0.30;0.20;;;10.60;99.90;;;;;;4993422;28;20951;-78
2022/02/03 11:06:07;;;;;;;0.40;0.30;;;10.40;99.90;;;;;;4993808;28;20519;-78
2022/02/03 11:08:41;;;;;;;0.30;0.30;;;10.40;99.90;;;;;;4993879;28;20535;-78
2022/02/03 11:11:17;;;;;;;0.40;0.30;;;10.40;99.90;;;;;;4993864;28;20440;-78
2022/02/03 11:13:44;;;;;;;0.33;0.33;;;10.30;99.90;;;;;;4993746;28;20472;-78
2022/02/03 11:16:12;;;;;;;0.40;0.30;;;10.30;99.90;;;;;;4993466;28;20475;-77
2022/02/03 11:18:41;;;;;;;0.30;0.20;;;10.20;99.90;;;;;;4993722;28;20448;-77
2022/02/03 11:21:09;;;;;;;0.60;0.30;;;10.00;99.90;;;;;;4993706;28;20538;-77
2022/02/03 11:23:39;;;;;;;0.90;0.33;;;10.10;99.90;;;;;;4993858;28;21034;-78
2022/02/03 11:26:18;;;;;;;0.30;0.30;;;10.10;99.90;;;;;;4993350;28;20480;-78
2022/02/03 11:29:06;;;;;;;0.30;0.20;;;10.20;99.90;;;;;;4993622;28;20444;-78
2022/02/03 11:32:01;;;;;;;0.30;0.20;;;10.20;99.90;;;;;;4993847;28;20824;-78
2022/02/03 11:35:01;;;;;;;0.30;0.20;;;10.10;99.90;;;;;;4993508;28;20575;-77
2022/02/03 11:37:49;;;;;;;0.30;0.30;;;10.00;99.90;;;;;;4993158;28;21041;-78
2022/02/03 11:52:11;;;;;;;0.30;0.20;;;9.60;99.90;;;;;;4995891;28;20487;-79
2022/02/03 11:55:11;;;;;;;0.30;0.30;;;9.70;99.90;;;;;;4995013;28;20480;-79
2022/02/03 11:57:57;;;;;;;0.30;0.30;;;9.80;99.90;;;;;;4994014;28;20539;-79
2022/02/03 12:00:54;;;;;;;0.33;0.33;;;9.80;99.90;;;;;;4993816;28;20443;-79
2022/02/03 12:03:53;;;;;;;0.30;0.30;;;9.90;99.90;;;;;;4996833;28;20445;-79
2022/02/03 12:07:06;;;;;;;0.30;0.30;;;9.90;99.90;;;;;;4997352;28;20476;-79
2022/02/03 12:15:22;;;;;;;0.30;0.20;;;10.00;99.90;;;;;;4998707;28;20455;-81
2022/02/03 12:17:57;;;;;;;1.43;0.30;;;10.10;99.90;;;;;;4996608;28;20448;-80
2022/02/03 12:20:41;;;;;;;0.30;0.30;;;10.20;99.90;;;;;;4996554;28;20462;-79
2022/02/03 12:23:38;;;;;;;0.30;0.20;;;10.10;99.90;;;;;;4996268;28;20467;-79
2022/02/03 12:26:10;;;;;;;0.30;0.30;;;10.10;99.90;;;;;;4996042;28;20968;-79
2022/02/03 12:28:48;;;;;;;0.40;0.30;;;10.10;99.90;;;;;;4996096;28;20924;-80
2022/02/03 12:37:10;;;;;;;0.40;0.30;;;10.00;99.90;;;;;;4996110;28;20813;-80
2022/02/03 12:39:48;;;;;;;0.50;0.40;;;9.90;99.90;;;;;;4995894;28;20448;-80
2022/02/03 12:42:27;;;;;;;0.30;0.20;;;9.90;99.90;;;;;;4996150;28;20527;-80
2022/02/03 12:45:02;;;;;;;0.30;0.27;;;10.00;99.90;;;;;;4995776;28;20855;-79
2022/02/03 12:47:31;;;;;;;0.33;0.30;;;10.10;99.90;;;;;;4995952;28;20591;-79
2022/02/03 12:49:59;;;;;;;0.33;0.30;;;10.00;99.90;;;;;;4996026;28;20441;-79
2022/02/03 12:52:28;;;;;;;0.40;0.30;;;10.10;99.90;;;;;;4996036;28;20409;-79
2022/02/03 12:54:56;;;;;;;0.30;0.30;;;10.10;99.90;;;;;;4995871;28;20502;-79
2022/02/03 12:57:31;;;;;;;0.30;0.30;;;10.10;99.90;;;;;;4995486;28;21010;-79
2022/02/03 13:00:14;;;;;;;0.40;0.40;;;10.00;99.90;;;;;;4995850;28;20440;-80
2022/02/03 13:02:41;;;;;;;0.30;0.30;;;10.00;99.90;;;;;;4996418;28;20456;-80
2022/02/03 13:05:09;;;;;;;0.40;0.30;;;10.00;99.90;;;;;;4995748;28;20437;-79
2022/02/03 13:07:36;;;;;;;0.30;0.30;;;10.00;99.90;;;;;;4995462;28;20413;-79
2022/02/03 13:10:06;;;;;;;0.30;0.20;;;9.90;99.90;;;;;;4995657;28;20437;-79
2022/02/03 13:12:37;;;;;;;0.60;0.60;;;9.90;99.90;;;;;;4995369;28;20464;-79
2022/02/03 13:15:07;;;;;;;0.30;0.30;;;9.80;99.90;;;;;;4995465;28;20469;-80
2022/02/03 13:17:38;;;;;;;0.30;0.20;;;9.70;99.90;;;;;;4995451;28;20453;-80
2022/02/03 13:20:15;;;;;;;0.30;0.30;;;9.70;99.90;;;;;;4995448;28;20499;-79
2022/02/03 13:22:49;;;;;;;0.30;0.30;;;9.60;99.90;;;;;;4995082;28;20814;-80
2022/02/03 13:25:21;;;;;;;0.67;0.50;;;9.60;99.90;;;;;;4994854;28;20514;-79
2022/02/03 13:27:59;;;;;;;0.50;0.50;;;9.50;99.90;;;;;;4995296;28;20441;-79
2022/02/03 13:30:41;;;;;;;0.40;0.40;;;9.50;99.90;;;;;;4995267;28;20502;-79
2022/02/03 13:33:11;;;;;;;0.30;0.30;;;9.40;99.90;;;;;;4995495;28;20447;-79
2022/02/03 13:38:40;;;;;;;0.40;0.40;;;9.50;99.90;;;;;;4994565;28;20495;-79
2022/02/03 13:41:11;;;;;;;0.30;0.30;;;9.60;99.90;;;;;;4995026;28;20476;-79
2022/02/03 13:43:39;;;;;;;0.40;0.30;;;9.50;99.90;;;;;;4994954;28;20437;-79
2022/02/03 13:46:07;;;;;;;0.50;0.30;;;9.60;99.90;;;;;;4994847;28;20487;-80
2022/02/03 13:48:37;;;;;;;0.30;0.20;;;9.60;99.90;;;;;;4994893;28;20444;-79
2022/02/03 13:51:08;;;;;;;0.30;0.30;;;9.60;99.90;;;;;;4994869;28;20440;-79
2022/02/03 13:53:40;;;;;;;0.33;0.30;;;9.60;99.90;;;;;;4994833;28;20452;-79
2022/02/03 14:19:15;;;;;;;0.30;0.30;;;9.70;99.90;;;;;;4953391;29;20473;-79
2022/02/03 14:21:44;;;;;;;0.30;0.30;;;9.60;99.90;;;;;;4990292;28;20456;-79
2022/02/03 14:27:19;;;;;;;0.77;0.50;;;9.70;99.90;;;;;;4994041;28;20534;-79
2022/02/03 14:29:48;;;;;;;0.40;0.30;;;9.70;99.90;;;;;;4993950;28;20852;-79
2022/02/03 14:32:21;;;;;;;0.30;0.20;;;9.70;99.90;;;;;;4994193;28;20539;-79
2022/02/03 14:34:50;;;;;;;0.40;0.30;;;9.60;99.90;;;;;;4994130;28;20479;-79
2022/02/03 14:37:26;;;;;;;0.30;0.30;;;9.60;99.90;;;;;;4993811;28;21000;-79
2022/02/03 14:40:11;;;;;;;0.30;0.30;;;9.50;99.90;;;;;;4993865;28;20525;-79
2022/02/03 14:42:40;;;;;;;1.23;1.23;;;9.50;99.90;;;;;;4993817;28;20452;-79
2022/02/03 14:45:10;;;;;;;0.63;0.30;;;9.60;99.90;;;;;;4993778;28;20544;-79
2022/02/03 14:47:36;;;;;;;1.17;0.70;;;9.50;99.90;;;;;;4994042;28;20464;-79
2022/02/03 14:50:05;;;;;;;0.30;0.30;;;9.50;99.90;;;;;;4994001;28;20818;-79
2022/02/03 14:52:43;;;;;;;0.40;0.30;;;9.40;99.90;;;;;;4993659;28;20464;-79
2022/02/03 14:58:04;;;;;;;0.30;0.20;;;9.30;99.90;;;;;;4993835;28;20459;-79
2022/02/03 15:00:31;;;;;;;0.30;0.20;;;9.20;99.90;;;;;;4993871;28;20443;-79
2022/02/03 15:02:59;;;;;;;0.30;0.27;;;9.10;99.90;;;;;;4993670;28;20826;-79
2022/02/03 15:05:29;;;;;;;0.30;0.20;;;9.10;99.90;;;;;;4993820;28;20433;-79
2022/02/03 15:07:58;;;;;;;0.37;0.27;;;9.00;99.90;;;;;;4993869;28;20445;-79
2022/02/03 15:10:43;;;;;;;0.30;0.23;;;8.90;99.90;;;;;;4994419;28;20444;-79
2022/02/03 15:13:15;;;;;;;0.30;0.27;;;8.90;99.90;;;;;;4993827;28;20447;-79
2022/02/03 15:15:42;;;;;;;0.30;0.30;;;8.90;99.90;;;;;;4993651;28;20488;-80
2022/02/03 15:18:09;;;;;;;0.30;0.30;;;8.80;99.90;;;;;;4993853;28;20409;-81
2022/02/03 15:20:36;;;;;;;0.40;0.30;;;8.80;99.90;;;;;;4993684;28;20425;-81
2022/02/03 15:23:04;;;;;;;0.30;0.30;;;8.70;99.90;;;;;;4993352;28;20823;-79
2022/02/03 15:25:32;;;;;;;0.30;0.20;;;8.70;99.90;;;;;;4993393;28;20986;-79
2022/02/03 15:27:59;;;;;;;0.30;0.30;;;8.70;99.90;;;;;;4993688;28;20440;-79
2022/02/03 15:30:26;;;;;;;0.30;0.30;;;8.60;99.90;;;;;;4993366;28;20424;-79
2022/02/03 15:32:53;;;;;;;0.40;0.30;;;8.60;99.90;;;;;;4993676;28;20429;-79
2022/02/03 15:35:26;;;;;;;0.30;0.30;;;8.50;99.90;;;;;;4993342;28;20477;-79
2022/02/03 15:37:54;;;;;;;0.30;0.30;;;8.50;99.90;;;;;;4997069;28;20437;-79
2022/02/03 15:40:23;;;;;;;0.30;0.20;;;8.50;99.90;;;;;;4997289;28;20528;-79
2022/02/03 15:43:03;;;;;;;0.40;0.30;;;8.40;99.90;;;;;;4997235;28;20444;-79
2022/02/03 15:45:34;;;;;;;0.60;0.30;;;8.40;99.90;;;;;;4997146;28;20997;-79
2022/02/03 15:48:09;;;;;;;0.30;0.30;;;8.30;99.90;;;;;;4997161;28;20527;-79
2022/02/03 15:56:25;;;;;;;0.30;0.30;;;8.10;99.90;;;;;;4996839;28;20491;-79
2022/02/03 16:01:53;;;;;;;0.30;0.30;;;8.00;99.90;;;;;;4996994;28;20431;-79
2022/02/03 16:04:30;;;;;;;0.80;0.30;;;7.90;99.90;;;;;;4996871;28;20951;-79
2022/02/03 16:17:56;;;;;;;0.40;0.30;;;7.60;99.90;;;;;;4996742;28;20880;-79
2022/02/03 16:20:24;;;;;;;0.30;0.20;;;7.60;99.90;;;;;;4997092;28;20445;-79
2022/02/03 16:22:57;;;;;;;0.30;0.30;;;7.50;99.90;;;;;;4996584;28;20531;-79
2022/02/03 16:25:55;;;;;;;0.40;0.40;;;7.50;99.90;;;;;;4996415;28;20425;-79
2022/02/03 16:50:31;;;;;;;0.60;0.40;;;7.30;99.90;;;;;;4996132;28;20407;-80
2022/02/03 16:52:59;;;;;;;0.30;0.20;;;7.20;99.90;;;;;;4996028;28;20722;-80
2022/02/03 16:55:32;;;;;;;2.20;0.53;;;7.20;99.90;;;;;;4995818;28;20468;-80
2022/02/03 16:57:59;;;;;;;0.50;0.30;;;7.10;99.90;;;;;;4995973;28;20780;-80
2022/02/03 17:00:26;;;;;;;0.30;0.23;;;7.10;99.90;;;;;;4995875;28;20440;-80
2022/02/03 17:02:54;;;;;;;0.30;0.30;;;7.10;99.90;;;;;;4995805;28;20433;-80
2022/02/03 17:05:21;;;;;;;0.30;0.30;;;7.00;99.90;;;;;;4995660;28;20834;-80
2022/02/03 17:07:48;;;;;;;0.30;0.30;;;7.00;99.90;;;;;;4995754;28;20437;-80
2022/02/03 17:10:15;;;;;;;0.30;0.30;;;7.00;99.90;;;;;;4995589;28;20437;-80
2022/02/03 17:12:42;;;;;;;0.30;0.20;;;6.90;99.90;;;;;;4995304;28;20444;-80
2022/02/03 17:15:10;;;;;;;0.40;0.40;;;6.90;99.90;;;;;;4995127;28;20995;-80
2022/02/03 17:17:36;;;;;;;0.40;0.40;;;6.90;99.90;;;;;;4995222;28;20448;-80
2022/02/03 17:20:06;;;;;;;0.53;0.53;;;6.90;99.90;;;;;;4995480;28;20436;-80
2022/02/03 17:22:37;;;;;;;0.30;0.20;;;6.80;99.90;;;;;;4995375;28;20440;-80
2022/02/03 17:25:09;;;;;;;1.80;0.70;;;6.90;99.90;;;;;;4994958;28;20483;-80
2022/02/03 17:27:42;;;;;;;0.30;0.30;;;6.90;99.90;;;;;;4995022;28;20441;-79
2022/02/03 17:30:14;;;;;;;2.07;1.97;;;6.80;99.90;;;;;;4995294;28;20448;-79
2022/02/03 18:03:34;;;;;;;0.30;0.20;;;6.70;99.90;;;;;;4994788;28;20487;-79
2022/02/03 18:08:50;;;;;;;0.40;0.40;;;6.70;99.90;;;;;;4994564;28;20791;-79
2022/02/03 18:11:29;;;;;;;0.40;0.40;;;6.60;99.90;;;;;;4994581;28;20535;-79
2022/02/03 18:19:50;;;;;;;0.63;0.63;;;6.60;99.90;;;;;;4994500;28;20571;-79
2022/02/03 18:30:34;;;;;;;0.30;0.30;;;6.40;99.90;;;;;;4994308;28;20408;-79
2022/02/03 18:33:37;;;;;;;0.30;0.20;;;6.40;99.90;;;;;;4994282;28;20476;-79
2022/02/03 18:36:10;;;;;;;0.30;0.30;;;6.30;99.90;;;;;;4993518;28;20916;-79
2022/02/03 18:49:56;;;;;;;0.30;0.20;;;6.20;99.90;;;;;;4994045;28;20415;-79
2022/02/03 18:52:28;;;;;;;2.50;0.50;;;6.20;99.90;;;;;;4994018;28;20978;-79
2022/02/03 18:55:07;;;;;;;0.40;0.40;;;6.20;99.90;;;;;;4993901;28;20433;-79
2022/02/03 18:57:52;;;;;;;0.60;0.33;;;6.10;99.90;;;;;;4993608;28;21046;-79
2022/02/03 19:00:36;;;;;;;0.30;0.30;;;6.10;99.90;;;;;;4993979;28;20441;-80
2022/02/03 19:25:36;;;;;;;0.30;0.23;;;6.00;99.90;;;;;;4997281;28;20467;-79
2022/02/03 20:04:00;;;;;;;0.30;0.20;;;5.70;99.90;;;;;;4996737;28;20891;-79
2022/02/03 20:06:46;;;;;;;0.40;0.40;;;5.70;99.90;;;;;;4996827;28;20914;-79
2022/02/03 20:09:22;;;;;;;0.30;0.30;;;5.70;99.90;;;;;;4996497;28;20905;-79
2022/02/03 20:11:49;;;;;;;0.30;0.30;;;5.70;99.90;;;;;;4996792;28;20439;-79
2022/02/03 20:14:16;;;;;;;0.30;0.30;;;5.70;99.90;;;;;;4996404;28;20452;-79
2022/02/03 20:16:44;;;;;;;0.30;0.30;;;5.70;99.90;;;;;;4996497;28;20492;-79
2022/02/03 20:19:13;;;;;;;0.30;0.30;;;5.70;99.90;;;;;;4996592;28;20453;-79
2022/02/03 20:21:41;;;;;;;0.77;0.77;;;5.70;99.90;;;;;;4995414;28;20823;-79
2022/02/03 20:24:08;;;;;;;0.30;0.20;;;5.70;99.90;;;;;;4996091;28;20510;-79
2022/02/03 20:26:36;;;;;;;0.90;0.90;;;5.70;99.90;;;;;;4996388;28;20475;-79
2022/02/03 20:29:04;;;;;;;0.30;0.30;;;5.70;99.90;;;;;;4996107;28;20452;-79
2022/02/03 20:31:30;;;;;;;0.40;0.40;;;5.70;99.90;;;;;;4996076;28;20940;-79
2022/02/03 20:33:57;;;;;;;0.37;0.33;;;5.70;99.90;;;;;;4996041;28;20848;-79
2022/02/03 20:36:25;;;;;;;0.30;0.30;;;5.70;99.90;;;;;;4995839;28;20846;-79
2022/02/03 20:38:52;;;;;;;0.30;0.30;;;5.60;99.90;;;;;;4996268;28;20455;-79
2022/02/03 20:41:19;;;;;;;0.30;0.30;;;5.60;99.90;;;;;;4996217;28;20471;-80
2022/02/03 20:43:46;;;;;;;0.30;0.30;;;5.60;99.90;;;;;;4996170;28;20448;-79
2022/02/03 20:46:13;;;;;;;0.30;0.30;;;5.50;99.90;;;;;;4996058;28;20472;-79
2022/02/03 20:48:45;;;;;;;0.30;0.20;;;5.50;99.90;;;;;;4996031;28;20452;-79
2022/02/03 20:51:13;;;;;;;0.30;0.30;;;5.50;99.90;;;;;;4995741;28;20920;-79
2022/02/03 20:53:43;;;;;;;0.67;0.67;;;5.40;99.90;;;;;;4996024;28;20437;-82
2022/02/03 20:56:11;;;;;;;1.23;0.67;;;5.40;99.90;;;;;;4995772;28;20519;-80
2022/02/03 20:58:38;;;;;;;0.40;0.30;;;5.40;99.90;;;;;;4995905;28;20433;-79
2022/02/03 21:01:12;;;;;;;0.40;0.30;;;5.40;99.90;;;;;;4995908;28;20443;-79
2022/02/03 21:03:39;;;;;;;0.40;0.40;;;5.40;99.90;;;;;;4995840;28;20487;-79
2022/02/03 21:06:09;;;;;;;0.30;0.20;;;5.30;99.90;;;;;;4995740;28;20479;-79
2022/02/03 21:08:38;;;;;;;0.80;0.37;;;5.30;99.90;;;;;;4995784;28;20447;-79
2022/02/03 21:11:06;;;;;;;0.30;0.30;;;5.30;99.90;;;;;;4995714;28;20441;-79
2022/02/03 21:13:33;;;;;;;0.83;0.50;;;5.30;99.90;;;;;;4995618;28;20440;-79
2022/02/03 21:16:02;;;;;;;0.30;0.30;;;5.20;99.90;;;;;;4995438;28;20495;-79
2022/02/03 21:18:30;;;;;;;0.50;0.50;;;5.20;99.90;;;;;;4995251;28;20833;-79
2022/02/03 21:20:58;;;;;;;0.93;0.87;;;5.20;99.90;;;;;;4995720;28;20436;-79
2022/02/03 21:23:25;;;;;;;0.40;0.40;;;5.20;99.90;;;;;;4995224;28;20476;-79
2022/02/03 21:25:54;;;;;;;0.33;0.33;;;5.20;99.90;;;;;;4995052;28;20464;-79